Omega, Oklahoma
Current Conditions -  °F | °C
As of 5:15 AM on Wednesday 22 Oct 2014 (Local Time) from KJWG Reporting Station
Clear Clear  
Wind Chill: 59°   Ceiling: Unl
Heat Index: 59°   Visibility: 10mi
Dew Point: 56°   Wind: 3mph
Humidity: 90%   Direction: 150°SSE
Pressure: 30.09"   Gusts: NA
Location:  35.87°N, 98.2°W
Report Text: KJWG 221015Z AUTO 15003KT 10SM CLR 15/13 A3009 RMK AO2 T01480131
Loading
Personal Weather Stations






























Interactive Weather Map
Tropical Storm Tracking
New forecast layout! Learn more

10-Day Weather Forecast

Advertisements
Track Severe Weather on mobile